METAR Data
IDs: Format: Raw Decoded Include TAF

Data at: 1406 UTC 27 Nov 2021

LKTB 271400Z 09003KT 070V130 8000 FEW010 OVC031 01/M01 Q0996 NOSIG